Time,TemperatureF,DewpointF,PressureIn,WindDirection,WindDirectionDegrees,WindSpeedMPH,WindSpeedGustMPH,Humidity,HourlyPrecipIn,Conditions,Clouds,dailyrainin,SolarRadiationWatts/m^2,SoftwareType,DateUTC
2013-06-22 00:00:00,63.0,60.6,30.08,NW,315,0.0,0.0,92,0.00,CLR,,0.00,0.0,WeatherDisplay:10.37,2013-06-21 14:00:00,
2013-06-22 00:05:00,63.1,60.8,30.08,NW,315,0.0,0.0,92,0.00,CLR,,0.00,0.0,WeatherDisplay:10.37,2013-06-21 14:05:00,
2013-06-22 00:10:00,63.0,60.6,30.08,NW,315,0.0,0.0,92,0.00,CLR,,0.00,0.0,WeatherDisplay:10.37,2013-06-21 14:10:00,
2013-06-22 00:20:00,62.6,60.2,30.09,NW,315,0.0,0.0,92,0.00,CLR,,0.00,0.0,WeatherDisplay:10.37,2013-06-21 14:20:00,
2013-06-22 00:25:00,62.4,60.4,30.09,NW,315,0.0,0.0,93,0.00,CLR,,0.00,0.0,WeatherDisplay:10.37,2013-06-21 14:25:00,
2013-06-22 00:30:00,62.4,60.4,30.09,NW,315,0.0,0.0,93,0.00,CLR,,0.00,0.0,WeatherDisplay:10.37,2013-06-21 14:30:00,
2013-06-22 00:35:00,62.4,60.4,30.08,NW,315,0.0,0.0,93,0.00,CLR,,0.00,0.0,WeatherDisplay:10.37,2013-06-21 14:35:00,
2013-06-22 00:40:00,62.6,60.2,30.08,NW,315,0.0,0.0,92,0.00,CLR,,0.00,0.0,WeatherDisplay:10.37,2013-06-21 14:40:00,
2013-06-22 00:45:00,62.4,60.4,30.08,NW,315,0.0,0.0,93,0.00,CLR,,0.00,0.0,WeatherDisplay:10.37,2013-06-21 14:45:00,
2013-06-22 00:50:00,62.4,60.4,30.08,NW,315,0.0,0.0,93,0.00,CLR,,0.00,0.0,WeatherDisplay:10.37,2013-06-21 14:50:00,
2013-06-22 00:55:00,62.3,60.2,30.08,NW,315,0.0,0.0,93,0.00,CLR,,0.00,0.0,WeatherDisplay:10.37,2013-06-21 14:55:00,
2013-06-22 01:00:00,62.4,60.7,30.08,NW,315,0.0,0.0,94,0.00,CLR,,0.00,0.0,WeatherDisplay:10.37,2013-06-21 15:00:00,
2013-06-22 01:05:00,62.3,60.5,30.08,NW,315,0.0,0.0,94,0.00,CLR,,0.00,0.0,WeatherDisplay:10.37,2013-06-21 15:05:00,
2013-06-22 01:15:00,61.9,59.9,30.09,NW,315,0.0,0.0,93,0.00,CLR,,0.00,0.0,WeatherDisplay:10.37,2013-06-21 15:15:00,
2013-06-22 01:20:00,61.9,59.8,30.08,NW,315,0.0,0.0,93,0.00,CLR,,0.00,0.0,WeatherDisplay:10.37,2013-06-21 15:20:00,
2013-06-22 01:25:00,61.9,59.8,30.08,NW,315,0.0,0.0,93,0.00,CLR,,0.00,0.0,WeatherDisplay:10.37,2013-06-21 15:25:00,
2013-06-22 01:30:00,61.9,59.8,30.08,NW,315,0.0,0.0,93,0.00,CLR,,0.00,0.0,WeatherDisplay:10.37,2013-06-21 15:30:00,
2013-06-22 01:35:00,62.1,60.0,30.07,NW,315,0.0,0.0,93,0.00,CLR,,0.00,0.0,WeatherDisplay:10.37,2013-06-21 15:35:00,
2013-06-22 01:45:00,61.9,59.8,30.08,NW,315,0.0,0.0,93,0.00,CLR,,0.00,0.0,WeatherDisplay:10.37,2013-06-21 15:45:00,
2013-06-22 01:50:00,61.5,59.5,30.08,NW,315,0.0,0.0,93,0.00,CLR,,0.00,0.0,WeatherDisplay:10.37,2013-06-21 15:50:00,
2013-06-22 01:55:00,61.5,59.2,30.08,NW,315,0.0,3.0,92,0.00,CLR,,0.00,0.0,WeatherDisplay:10.37,2013-06-21 15:55:00,
2013-06-22 02:00:00,61.5,58.6,30.08,NW,315,0.0,2.0,90,0.00,CLR,,0.00,0.0,WeatherDisplay:10.37,2013-06-21 16:00:00,
2013-06-22 02:05:00,61.5,57.9,30.07,NW,315,0.0,0.0,88,0.00,CLR,,0.00,0.0,WeatherDisplay:10.37,2013-06-21 16:05:00,
2013-06-22 02:10:00,61.7,57.8,30.07,NW,315,0.0,0.0,87,0.00,CLR,,0.00,0.0,WeatherDisplay:10.37,2013-06-21 16:10:00,
2013-06-22 02:15:00,61.7,57.8,30.06,NW,315,1.0,3.0,87,0.00,CLR,,0.00,0.0,WeatherDisplay:10.37,2013-06-21 16:15:00,
2013-06-22 02:20:00,61.6,57.7,30.06,NW,315,0.0,2.0,87,0.00,CLR,,0.00,0.0,WeatherDisplay:10.37,2013-06-21 16:20:00,
2013-06-22 02:25:00,61.5,57.9,30.06,NW,315,0.0,2.0,88,0.00,CLR,,0.00,0.0,WeatherDisplay:10.37,2013-06-21 16:25:00,
2013-06-22 02:30:00,61.2,57.6,30.06,NW,315,0.0,2.0,88,0.00,CLR,,0.00,0.0,WeatherDisplay:10.37,2013-06-21 16:30:00,
2013-06-22 02:35:00,61.0,57.7,30.06,NW,315,0.0,0.0,89,0.00,CLR,,0.00,0.0,WeatherDisplay:10.37,2013-06-21 16:35:00,
2013-06-22 02:40:00,60.6,58.0,30.05,NW,315,0.0,0.0,91,0.00,CLR,,0.00,0.0,WeatherDisplay:10.37,2013-06-21 16:40:00,
2013-06-22 02:45:00,60.4,57.8,30.05,NW,315,0.0,0.0,91,0.00,CLR,,0.00,0.0,WeatherDisplay:10.37,2013-06-21 16:45:00,
2013-06-22 02:50:00,60.6,58.0,30.05,NW,315,0.0,0.0,91,0.00,CLR,,0.00,0.0,WeatherDisplay:10.37,2013-06-21 16:50:00,
2013-06-22 02:55:00,61.0,58.0,30.05,NW,315,0.0,1.0,90,0.00,CLR,,0.00,0.0,WeatherDisplay:10.37,2013-06-21 16:55:00,
2013-06-22 03:00:00,60.6,58.3,30.05,NW,315,0.0,0.0,92,0.00,CLR,,0.00,0.0,WeatherDisplay:10.37,2013-06-21 17:00:00,
2013-06-22 03:10:00,60.4,57.8,30.05,NW,315,0.0,0.0,91,0.00,CLR,,0.00,0.0,WeatherDisplay:10.37,2013-06-21 17:10:00,
2013-06-22 03:20:00,60.1,57.1,30.05,NW,315,0.0,0.0,90,0.00,CLR,,0.00,0.0,WeatherDisplay:10.37,2013-06-21 17:20:00,
2013-06-22 03:25:00,60.1,56.8,30.05,NW,315,0.0,0.0,89,0.00,CLR,,0.00,0.0,WeatherDisplay:10.37,2013-06-21 17:25:00,
2013-06-22 03:35:00,60.1,56.8,30.04,NW,315,0.0,0.0,89,0.00,CLR,,0.00,0.0,WeatherDisplay:10.37,2013-06-21 17:35:00,
2013-06-22 03:50:00,59.9,56.6,30.04,NW,315,0.0,0.0,89,0.00,CLR,,0.00,0.0,WeatherDisplay:10.37,2013-06-21 17:50:00,
2013-06-22 03:55:00,59.9,56.3,30.04,NW,315,0.0,0.0,88,0.00,CLR,,0.00,0.0,WeatherDisplay:10.37,2013-06-21 17:55:00,
2013-06-22 04:05:00,60.1,56.8,30.05,NW,315,0.0,0.0,89,0.00,CLR,,0.00,0.0,WeatherDisplay:10.37,2013-06-21 18:05:00,
2013-06-22 04:10:00,59.9,57.6,30.04,NW,315,1.0,3.0,92,0.00,CLR,,0.00,0.0,WeatherDisplay:10.37,2013-06-21 18:10:00,
2013-06-22 04:20:00,59.5,57.2,30.05,NW,315,0.0,0.0,92,0.00,CLR,,0.00,0.0,WeatherDisplay:10.37,2013-06-21 18:20:00,
2013-06-22 04:25:00,59.4,57.0,30.05,NW,315,0.0,0.0,92,0.00,CLR,,0.00,0.0,WeatherDisplay:10.37,2013-06-21 18:25:00,
2013-06-22 04:30:00,59.2,57.2,30.05,NW,315,0.0,0.0,93,0.00,CLR,,0.00,0.0,WeatherDisplay:10.37,2013-06-21 18:30:00,
2013-06-22 04:35:00,59.4,57.4,30.04,NW,315,3.0,4.0,93,0.00,CLR,,0.00,0.0,WeatherDisplay:10.37,2013-06-21 18:35:00,
2013-06-22 04:45:00,60.6,58.0,30.04,NW,315,2.0,5.0,91,0.00,CLR,,0.00,0.0,WeatherDisplay:10.37,2013-06-21 18:45:00,
2013-06-22 04:50:00,60.9,57.3,30.04,NW,315,1.0,6.0,88,0.00,CLR,,0.00,0.0,WeatherDisplay:10.37,2013-06-21 18:50:00,
2013-06-22 04:55:00,61.0,57.1,30.05,NW,315,0.0,2.0,87,0.00,CLR,,0.00,0.0,WeatherDisplay:10.37,2013-06-21 18:55:00,
2013-06-22 05:00:00,60.8,56.9,30.05,NW,315,0.0,2.0,87,0.00,CLR,,0.00,0.0,WeatherDisplay:10.37,2013-06-21 19:00:00,
2013-06-22 05:05:00,60.8,56.9,30.05,NW,315,0.0,0.0,87,0.00,CLR,,0.00,0.0,WeatherDisplay:10.37,2013-06-21 19:05:00,
2013-06-22 05:10:00,60.8,56.9,30.05,NW,315,0.0,3.0,87,0.00,CLR,,0.00,0.0,WeatherDisplay:10.37,2013-06-21 19:10:00,
2013-06-22 05:20:00,60.6,57.4,30.05,NW,315,0.0,1.0,89,0.00,CLR,,0.00,0.0,WeatherDisplay:10.37,2013-06-21 19:20:00,
2013-06-22 05:25:00,60.1,57.1,30.05,NW,315,0.0,1.0,90,0.00,CLR,,0.00,0.0,WeatherDisplay:10.37,2013-06-21 19:25:00,
2013-06-22 05:30:00,59.9,57.3,30.05,NW,315,0.0,1.0,91,0.00,CLR,,0.00,0.0,WeatherDisplay:10.37,2013-06-21 19:30:00,
2013-06-22 05:35:00,59.7,57.4,30.06,NW,315,0.0,2.0,92,0.00,CLR,,0.00,0.0,WeatherDisplay:10.37,2013-06-21 19:35:00,
2013-06-22 05:40:00,59.4,57.3,30.06,NW,315,0.0,1.0,93,0.00,CLR,,0.00,0.0,WeatherDisplay:10.37,2013-06-21 19:40:00,
2013-06-22 05:45:00,59.2,57.2,30.05,NW,315,0.0,0.0,93,0.00,CLR,,0.00,0.0,WeatherDisplay:10.37,2013-06-21 19:45:00,
2013-06-22 05:50:00,59.2,57.5,30.05,NW,315,0.0,0.0,94,0.00,CLR,,0.00,0.0,WeatherDisplay:10.37,2013-06-21 19:50:00,
2013-06-22 05:55:00,59.0,57.3,30.05,NW,315,0.0,0.0,94,0.00,CLR,,0.00,0.0,WeatherDisplay:10.37,2013-06-21 19:55:00,
2013-06-22 06:00:00,59.0,57.3,30.06,NW,315,0.0,0.0,94,0.00,CLR,,0.00,0.0,WeatherDisplay:10.37,2013-06-21 20:00:00,
2013-06-22 06:05:00,58.6,57.2,30.06,NW,315,0.0,2.0,95,0.00,CLR,,0.00,0.0,WeatherDisplay:10.37,2013-06-21 20:05:00,
2013-06-22 06:10:00,58.5,57.0,30.06,NW,315,0.0,1.0,95,0.00,CLR,,0.00,0.0,WeatherDisplay:10.37,2013-06-21 20:10:00,
2013-06-22 06:15:00,58.3,57.1,30.06,NW,315,0.0,0.0,96,0.00,CLR,,0.00,0.0,WeatherDisplay:10.37,2013-06-21 20:15:00,
2013-06-22 06:20:00,58.3,57.2,30.06,NW,315,0.0,0.0,96,0.00,CLR,,0.00,0.0,WeatherDisplay:10.37,2013-06-21 20:20:00,
2013-06-22 06:25:00,58.5,57.3,30.06,NW,315,0.0,0.0,96,0.00,CLR,,0.00,0.0,WeatherDisplay:10.37,2013-06-21 20:25:00,
2013-06-22 06:30:00,58.8,58.0,30.06,NW,315,0.0,0.0,97,0.00,CLR,,0.00,0.0,WeatherDisplay:10.37,2013-06-21 20:30:00,
2013-06-22 06:35:00,58.8,58.0,30.06,NW,315,0.0,0.0,97,0.00,CLR,,0.00,0.0,WeatherDisplay:10.37,2013-06-21 20:35:00,
2013-06-22 06:40:00,58.6,57.8,30.06,NW,315,0.0,0.0,97,0.00,CLR,,0.00,0.0,WeatherDisplay:10.37,2013-06-21 20:40:00,
2013-06-22 06:50:00,58.5,57.6,30.06,NW,315,0.0,0.0,97,0.00,CLR,,0.00,2.4,WeatherDisplay:10.37,2013-06-21 20:50:00,
2013-06-22 06:55:00,58.5,57.9,30.07,NW,315,1.0,2.0,98,0.00,CLR,,0.00,7.8,WeatherDisplay:10.37,2013-06-21 20:55:00,
2013-06-22 07:00:00,58.6,58.1,30.07,NW,315,0.0,1.0,98,0.00,BKN,,0.00,14.2,WeatherDisplay:10.37,2013-06-21 21:00:00,
2013-06-22 07:05:00,59.2,58.3,30.07,NW,315,0.0,0.0,97,0.00,BKN,,0.00,23.5,WeatherDisplay:10.37,2013-06-21 21:05:00,
2013-06-22 07:10:00,59.7,58.8,30.07,NW,315,0.0,2.0,97,0.00,BKN,,0.00,51.2,WeatherDisplay:10.37,2013-06-21 21:10:00,
2013-06-22 07:15:00,61.1,60.3,30.07,NW,315,0.0,1.0,97,0.00,BKN,,0.00,42.1,WeatherDisplay:10.37,2013-06-21 21:15:00,
2013-06-22 07:20:00,61.6,60.7,30.08,NW,315,0.0,0.0,97,0.00,CLR,,0.00,97.2,WeatherDisplay:10.37,2013-06-21 21:20:00,
2013-06-22 07:25:00,63.0,61.2,30.08,NW,315,0.0,1.0,94,0.00,CLR,,0.00,66.6,WeatherDisplay:10.37,2013-06-21 21:25:00,
2013-06-22 07:30:00,63.2,60.9,30.08,NW,315,0.0,0.0,92,0.00,CLR,,0.00,68.0,WeatherDisplay:10.37,2013-06-21 21:30:00,
2013-06-22 07:35:00,64.9,61.9,30.08,NW,315,1.0,3.0,90,0.00,CLR,,0.00,54.0,WeatherDisplay:10.37,2013-06-21 21:35:00,
2013-06-22 07:40:00,66.5,61.9,30.08,NW,315,0.0,2.0,85,0.00,CLR,,0.00,39.0,WeatherDisplay:10.37,2013-06-21 21:40:00,
2013-06-22 07:45:00,67.3,62.3,30.09,NW,315,0.0,1.0,84,0.00,CLR,,0.00,25.0,WeatherDisplay:10.37,2013-06-21 21:45:00,
2013-06-22 07:55:00,68.0,60.5,30.09,NW,315,0.0,0.0,77,0.00,CLR,,0.00,137.4,WeatherDisplay:10.37,2013-06-21 21:55:00,
2013-06-22 08:00:00,67.3,60.5,30.09,NW,315,1.0,2.0,79,0.00,OVC,,0.00,166.1,WeatherDisplay:10.37,2013-06-21 22:00:00,
2013-06-22 08:05:00,66.7,60.0,30.09,NW,315,2.0,4.0,79,0.00,OVC,,0.00,171.5,WeatherDisplay:10.37,2013-06-21 22:05:00,
2013-06-22 08:10:00,66.6,59.5,30.10,NW,315,1.0,3.0,78,0.00,OVC,,0.00,231.5,WeatherDisplay:10.37,2013-06-21 22:10:00,
2013-06-22 08:15:00,67.6,61.3,30.10,NW,315,0.0,2.0,80,0.00,OVC,,0.00,217.0,WeatherDisplay:10.37,2013-06-21 22:15:00,
2013-06-22 08:25:00,68.7,60.5,30.11,NW,315,1.0,2.0,75,0.00,OVC,,0.00,214.7,WeatherDisplay:10.37,2013-06-21 22:25:00,
2013-06-22 08:30:00,69.1,60.4,30.11,NW,315,1.0,3.0,74,0.00,OVC,,0.00,236.1,WeatherDisplay:10.37,2013-06-21 22:30:00,
2013-06-22 08:35:00,69.4,59.6,30.11,NW,315,1.0,2.0,71,0.00,OVC,,0.00,222.4,WeatherDisplay:10.37,2013-06-21 22:35:00,
2013-06-22 08:45:00,72.2,60.6,30.11,NW,315,1.0,3.0,67,0.00,OVC,,0.00,540.3,WeatherDisplay:10.37,2013-06-21 22:45:00,
2013-06-22 08:50:00,73.9,61.9,30.11,NW,315,1.0,3.0,66,0.00,OVC,,0.00,361.7,WeatherDisplay:10.37,2013-06-21 22:50:00,
2013-06-22 08:55:00,73.0,59.7,30.11,NW,315,2.0,6.0,63,0.00,OVC,,0.00,269.3,WeatherDisplay:10.37,2013-06-21 22:55:00,
2013-06-22 09:00:00,71.8,59.4,30.11,NW,315,0.0,3.0,65,0.00,OVC,,0.00,229.8,WeatherDisplay:10.37,2013-06-21 23:00:00,
2013-06-22 09:05:00,71.3,59.4,30.11,NW,315,2.0,4.0,66,0.00,OVC,,0.00,501.2,WeatherDisplay:10.37,2013-06-21 23:05:00,
2013-06-22 09:10:00,72.2,60.2,30.11,NW,315,0.0,2.0,66,0.00,OVC,,0.00,824.8,WeatherDisplay:10.37,2013-06-21 23:10:00,
2013-06-22 09:15:00,75.5,62.4,30.11,NW,315,0.0,2.0,64,0.00,OVC,,0.00,733.5,WeatherDisplay:10.37,2013-06-21 23:15:00,
2013-06-22 09:20:00,76.3,60.0,30.11,NW,315,2.0,5.0,57,0.00,OVC,,0.00,463.6,WeatherDisplay:10.37,2013-06-21 23:20:00,
2013-06-22 09:25:00,74.7,59.9,30.11,NW,315,1.0,3.0,60,0.00,OVC,,0.00,742.3,WeatherDisplay:10.37,2013-06-21 23:25:00,
2013-06-22 09:30:00,74.9,60.5,30.10,NW,315,2.0,4.0,61,0.00,OVC,,0.00,390.9,WeatherDisplay:10.37,2013-06-21 23:30:00,
2013-06-22 09:35:00,74.0,59.7,30.10,NW,315,2.0,5.0,61,0.00,OVC,,0.00,751.3,WeatherDisplay:10.37,2013-06-21 23:35:00,
2013-06-22 09:40:00,72.9,59.1,30.10,SSW,194,2.0,7.0,62,0.00,OVC,,0.00,882.8,WeatherDisplay:10.37,2013-06-21 23:40:00,
2013-06-22 09:45:00,72.4,59.5,30.10,South,176,2.0,7.0,64,0.00,OVC,,0.00,956.1,WeatherDisplay:10.37,2013-06-21 23:45:00,
2013-06-22 09:50:00,73.0,59.7,30.11,SSE,156,5.0,9.0,63,0.00,OVC,,0.00,600.7,WeatherDisplay:10.37,2013-06-21 23:50:00,
2013-06-22 09:55:00,72.9,60.0,30.11,SE,142,2.0,9.0,64,0.00,OVC,,0.00,929.9,WeatherDisplay:10.37,2013-06-21 23:55:00,
2013-06-22 10:00:00,74.4,60.6,30.10,SE,139,1.0,9.0,62,0.00,OVC,,0.00,1121.6,WeatherDisplay:10.37,2013-06-22 00:00:00,
2013-06-22 10:10:00,76.5,60.6,30.11,SE,135,5.0,7.0,58,0.00,OVC,,0.00,442.3,WeatherDisplay:10.37,2013-06-22 00:10:00,
2013-06-22 10:15:00,73.4,59.6,30.11,SE,135,3.0,8.0,62,0.00,OVC,,0.00,1062.0,WeatherDisplay:10.37,2013-06-22 00:15:00,
2013-06-22 10:20:00,73.7,60.3,30.11,SE,133,3.0,7.0,63,0.00,OVC,,0.00,813.0,WeatherDisplay:10.37,2013-06-22 00:20:00,
2013-06-22 10:25:00,74.8,60.9,30.11,SE,133,2.0,7.0,62,0.00,OVC,,0.00,695.9,WeatherDisplay:10.37,2013-06-22 00:25:00,
2013-06-22 10:30:00,76.5,61.1,30.11,SE,135,3.0,6.0,59,0.00,OVC,,0.00,589.6,WeatherDisplay:10.37,2013-06-22 00:30:00,
2013-06-22 10:35:00,75.6,59.8,30.11,SE,135,3.0,6.0,58,0.00,OVC,,0.00,686.8,WeatherDisplay:10.37,2013-06-22 00:35:00,
2013-06-22 10:40:00,76.1,60.7,30.10,SE,135,5.0,8.0,59,0.00,OVC,,0.00,423.8,WeatherDisplay:10.37,2013-06-22 00:40:00,
2013-06-22 10:45:00,75.4,61.0,30.10,SE,135,2.0,8.0,61,0.00,OVC,,0.00,1080.7,WeatherDisplay:10.37,2013-06-22 00:45:00,
2013-06-22 10:50:00,76.8,61.4,30.10,SE,135,2.0,6.0,59,0.00,OVC,,0.00,835.5,WeatherDisplay:10.37,2013-06-22 00:50:00,
2013-06-22 10:55:00,76.1,60.7,30.10,ESE,102,2.0,8.0,59,0.00,OVC,,0.00,548.9,WeatherDisplay:10.37,2013-06-22 00:55:00,
2013-06-22 11:00:00,75.8,60.9,30.10,ENE,58,1.0,8.0,60,0.00,OVC,,0.00,453.5,WeatherDisplay:10.37,2013-06-22 01:00:00,
2013-06-22 11:05:00,75.2,59.9,30.09,NE,45,3.0,8.0,59,0.00,OVC,,0.00,515.1,WeatherDisplay:10.37,2013-06-22 01:05:00,
2013-06-22 11:10:00,75.2,60.8,30.09,NE,45,7.0,12.0,61,0.00,OVC,,0.00,1365.6,WeatherDisplay:10.37,2013-06-22 01:10:00,
2013-06-22 11:15:00,77.1,61.6,30.09,NE,45,5.0,12.0,59,0.00,OVC,,0.00,1311.9,WeatherDisplay:10.37,2013-06-22 01:15:00,
2013-06-22 11:20:00,78.4,60.9,30.09,NE,45,5.0,9.0,55,0.00,OVC,,0.00,484.4,WeatherDisplay:10.37,2013-06-22 01:20:00,
2013-06-22 11:25:00,77.0,60.1,30.08,NE,45,2.0,8.0,56,0.00,OVC,,0.00,738.5,WeatherDisplay:10.37,2013-06-22 01:25:00,
2013-06-22 11:30:00,77.2,60.8,30.08,NE,45,5.0,6.0,57,0.00,OVC,,0.00,559.4,WeatherDisplay:10.37,2013-06-22 01:30:00,
2013-06-22 11:35:00,76.9,61.0,30.08,NE,45,3.0,8.0,58,0.00,OVC,,0.00,755.6,WeatherDisplay:10.37,2013-06-22 01:35:00,
2013-06-22 11:40:00,77.0,60.6,30.08,NE,45,6.0,8.0,57,0.00,OVC,,0.00,1419.0,WeatherDisplay:10.37,2013-06-22 01:40:00,
2013-06-22 11:45:00,78.0,61.0,30.07,NE,45,2.0,8.0,56,0.00,OVC,,0.00,920.2,WeatherDisplay:10.37,2013-06-22 01:45:00,
2013-06-22 11:50:00,78.1,60.6,30.07,NE,45,8.0,13.0,55,0.00,OVC,,0.00,972.7,WeatherDisplay:10.37,2013-06-22 01:50:00,
2013-06-22 11:55:00,77.7,60.8,30.07,NE,45,5.0,12.0,56,0.00,OVC,,0.00,1097.1,WeatherDisplay:10.37,2013-06-22 01:55:00,
2013-06-22 12:00:00,79.5,61.4,30.06,NE,45,7.0,11.0,54,0.00,OVC,,0.00,1267.9,WeatherDisplay:10.37,2013-06-22 02:00:00,
2013-06-22 12:05:00,78.8,60.7,30.06,NNE,32,7.0,13.0,54,0.00,OVC,,0.00,1329.2,WeatherDisplay:10.37,2013-06-22 02:05:00,
2013-06-22 12:10:00,78.7,61.1,30.06,NNW,341,7.0,14.0,55,0.00,OVC,,0.00,1291.2,WeatherDisplay:10.37,2013-06-22 02:10:00,
2013-06-22 12:15:00,78.3,60.8,30.06,NW,315,7.0,13.0,55,0.00,OVC,,0.00,1248.5,WeatherDisplay:10.37,2013-06-22 02:15:00,
2013-06-22 12:20:00,78.1,60.6,30.06,NW,315,7.0,15.0,55,0.00,OVC,,0.00,1208.5,WeatherDisplay:10.37,2013-06-22 02:20:00,
2013-06-22 12:25:00,77.2,60.3,30.06,NW,315,7.0,15.0,56,0.00,OVC,,0.00,1218.5,WeatherDisplay:10.37,2013-06-22 02:25:00,
2013-06-22 12:30:00,77.0,60.6,30.05,NW,315,8.0,15.0,57,0.00,OVC,,0.00,1238.7,WeatherDisplay:10.37,2013-06-22 02:30:00,
2013-06-22 12:35:00,77.7,61.3,30.05,NW,315,6.0,13.0,57,0.00,OVC,,0.00,939.8,WeatherDisplay:10.37,2013-06-22 02:35:00,
2013-06-22 12:40:00,76.8,60.9,30.05,NW,315,10.0,14.0,58,0.00,OVC,,0.00,1258.6,WeatherDisplay:10.37,2013-06-22 02:40:00,
2013-06-22 12:45:00,76.1,60.2,30.05,NW,315,3.0,12.0,58,0.00,OVC,,0.00,1241.4,WeatherDisplay:10.37,2013-06-22 02:45:00,
2013-06-22 12:50:00,77.6,60.7,30.05,NW,322,5.0,8.0,56,0.00,OVC,,0.00,967.6,WeatherDisplay:10.37,2013-06-22 02:50:00,
2013-06-22 12:55:00,77.2,60.3,30.05,North,349,5.0,12.0,56,0.00,OVC,,0.00,900.7,WeatherDisplay:10.37,2013-06-22 02:55:00,
2013-06-22 13:00:00,77.5,61.1,30.05,North,0,6.0,9.0,57,0.00,OVC,,0.00,877.5,WeatherDisplay:10.37,2013-06-22 03:00:00,
2013-06-22 13:05:00,77.3,60.9,30.05,North,0,5.0,11.0,57,0.00,OVC,,0.00,416.6,WeatherDisplay:10.37,2013-06-22 03:05:00,
2013-06-22 13:10:00,75.6,60.3,30.04,North,0,8.0,11.0,59,0.00,OVC,,0.00,531.5,WeatherDisplay:10.37,2013-06-22 03:10:00,
2013-06-22 13:15:00,76.1,61.2,30.04,North,0,6.0,9.0,60,0.00,OVC,,0.00,1351.8,WeatherDisplay:10.37,2013-06-22 03:15:00,
2013-06-22 13:20:00,78.2,61.7,30.04,North,0,8.0,12.0,57,0.00,OVC,,0.00,476.6,WeatherDisplay:10.37,2013-06-22 03:20:00,
2013-06-22 13:30:00,76.8,60.9,30.03,North,0,5.0,14.0,58,0.00,OVC,,0.00,903.4,WeatherDisplay:10.37,2013-06-22 03:30:00,
2013-06-22 13:35:00,76.7,61.2,30.03,North,0,9.0,14.0,59,0.00,OVC,,0.00,440.0,WeatherDisplay:10.37,2013-06-22 03:35:00,
2013-06-22 13:40:00,75.0,61.6,30.03,North,0,10.0,14.0,63,0.00,OVC,,0.00,454.2,WeatherDisplay:10.37,2013-06-22 03:40:00,
2013-06-22 13:50:00,76.2,61.8,30.03,North,0,5.0,13.0,61,0.00,OVC,,0.00,1199.9,WeatherDisplay:10.37,2013-06-22 03:50:00,
2013-06-22 13:55:00,77.5,61.1,30.03,North,0,7.0,11.0,57,0.00,OVC,,0.00,1008.9,WeatherDisplay:10.37,2013-06-22 03:55:00,
2013-06-22 14:00:00,77.5,61.6,30.02,North,0,5.0,11.0,58,0.00,OVC,,0.00,951.6,WeatherDisplay:10.37,2013-06-22 04:00:00,
2013-06-22 14:05:00,78.1,61.6,30.03,North,0,6.0,9.0,57,0.00,OVC,,0.00,907.2,WeatherDisplay:10.37,2013-06-22 04:05:00,
2013-06-22 14:10:00,78.3,61.8,30.02,North,0,5.0,8.0,57,0.00,OVC,,0.00,1205.4,WeatherDisplay:10.37,2013-06-22 04:10:00,
2013-06-22 14:15:00,78.1,61.6,30.02,North,0,3.0,12.0,57,0.00,OVC,,0.00,1040.0,WeatherDisplay:10.37,2013-06-22 04:15:00,
2013-06-22 14:20:00,78.2,61.2,30.02,North,0,7.0,12.0,56,0.00,OVC,,0.00,1007.0,WeatherDisplay:10.37,2013-06-22 04:20:00,
2013-06-22 14:25:00,77.4,61.5,30.02,North,0,6.0,10.0,58,0.00,OVC,,0.00,436.7,WeatherDisplay:10.37,2013-06-22 04:25:00,
2013-06-22 14:30:00,76.5,61.1,30.02,North,0,6.0,10.0,59,0.00,OVC,,0.00,516.4,WeatherDisplay:10.37,2013-06-22 04:30:00,
2013-06-22 14:35:00,76.9,61.5,30.02,North,0,6.0,9.0,59,0.00,OVC,,0.00,937.2,WeatherDisplay:10.37,2013-06-22 04:35:00,
2013-06-22 14:40:00,77.8,61.8,30.02,North,0,5.0,12.0,58,0.00,OVC,,0.00,988.3,WeatherDisplay:10.37,2013-06-22 04:40:00,
2013-06-22 14:45:00,77.7,60.8,30.02,North,0,5.0,12.0,56,0.00,OVC,,0.00,800.5,WeatherDisplay:10.37,2013-06-22 04:45:00,
2013-06-22 14:50:00,77.7,61.3,30.01,North,0,2.0,12.0,57,0.00,OVC,,0.00,397.0,WeatherDisplay:10.37,2013-06-22 04:50:00,
2013-06-22 14:55:00,77.2,60.8,30.02,North,0,3.0,6.0,57,0.00,OVC,,0.00,599.2,WeatherDisplay:10.37,2013-06-22 04:55:00,
2013-06-22 15:00:00,77.5,61.6,30.01,North,0,5.0,10.0,58,0.00,OVC,,0.00,394.6,WeatherDisplay:10.37,2013-06-22 05:00:00,
2013-06-22 15:10:00,75.9,61.4,30.01,North,0,7.0,13.0,61,0.00,OVC,,0.00,620.3,WeatherDisplay:10.37,2013-06-22 05:10:00,
2013-06-22 15:15:00,75.9,61.0,30.01,North,0,5.0,11.0,60,0.00,OVC,,0.00,616.7,WeatherDisplay:10.37,2013-06-22 05:15:00,
2013-06-22 15:20:00,76.1,61.7,30.01,North,0,7.0,11.0,61,0.00,OVC,,0.00,520.5,WeatherDisplay:10.37,2013-06-22 05:20:00,
2013-06-22 15:25:00,75.9,61.5,30.01,North,0,5.0,10.0,61,0.00,OVC,,0.00,480.4,WeatherDisplay:10.37,2013-06-22 05:25:00,
2013-06-22 15:30:00,75.7,61.8,30.01,North,0,7.0,11.0,62,0.00,OVC,,0.00,401.0,WeatherDisplay:10.37,2013-06-22 05:30:00,
2013-06-22 15:35:00,75.4,61.4,30.01,North,0,7.0,13.0,62,0.00,OVC,,0.00,375.6,WeatherDisplay:10.37,2013-06-22 05:35:00,
2013-06-22 15:40:00,75.0,62.0,30.01,North,0,6.0,9.0,64,0.00,OVC,,0.00,414.1,WeatherDisplay:10.37,2013-06-22 05:40:00,
2013-06-22 15:45:00,74.9,61.4,30.01,North,0,8.0,13.0,63,0.00,OVC,,0.00,365.6,WeatherDisplay:10.37,2013-06-22 05:45:00,
2013-06-22 15:50:00,74.3,61.8,30.02,North,0,6.0,12.0,65,0.00,OVC,,0.00,348.2,WeatherDisplay:10.37,2013-06-22 05:50:00,
2013-06-22 15:55:00,74.1,61.6,30.02,North,0,7.0,10.0,65,0.00,OVC,,0.00,306.7,WeatherDisplay:10.37,2013-06-22 05:55:00,
2013-06-22 16:00:00,74.1,62.0,30.02,North,0,6.0,9.0,66,0.00,CLR,,0.00,292.0,WeatherDisplay:10.37,2013-06-22 06:00:00,
2013-06-22 16:05:00,74.1,61.6,30.02,North,0,7.0,9.0,65,0.00,CLR,,0.00,277.0,WeatherDisplay:10.37,2013-06-22 06:05:00,
2013-06-22 16:10:00,73.6,61.1,30.02,North,0,6.0,11.0,65,0.00,CLR,,0.00,236.2,WeatherDisplay:10.37,2013-06-22 06:10:00,
2013-06-22 16:15:00,73.4,61.3,30.02,North,0,5.0,9.0,66,0.00,CLR,,0.00,209.6,WeatherDisplay:10.37,2013-06-22 06:15:00,
2013-06-22 16:20:00,73.2,60.7,30.02,North,0,3.0,10.0,65,0.00,CLR,,0.00,195.7,WeatherDisplay:10.37,2013-06-22 06:20:00,
2013-06-22 16:25:00,73.0,61.0,30.02,North,0,3.0,8.0,66,0.00,CLR,,0.00,180.4,WeatherDisplay:10.37,2013-06-22 06:25:00,
2013-06-22 16:30:00,73.0,60.6,30.02,North,0,3.0,8.0,65,0.00,CLR,,0.00,181.0,WeatherDisplay:10.37,2013-06-22 06:30:00,
2013-06-22 16:35:00,73.0,61.0,30.03,North,0,6.0,8.0,66,0.00,CLR,,0.00,167.9,WeatherDisplay:10.37,2013-06-22 06:35:00,
2013-06-22 16:40:00,72.9,60.9,30.03,North,0,3.0,8.0,66,0.00,CLR,,0.00,170.3,WeatherDisplay:10.37,2013-06-22 06:40:00,
2013-06-22 16:45:00,72.9,60.4,30.03,North,0,6.0,9.0,65,0.00,CLR,,0.00,139.9,WeatherDisplay:10.37,2013-06-22 06:45:00,
2013-06-22 16:50:00,72.2,60.2,30.03,North,0,7.0,9.0,66,0.00,CLR,,0.00,165.9,WeatherDisplay:10.37,2013-06-22 06:50:00,
2013-06-22 16:55:00,72.1,60.2,30.03,North,0,5.0,10.0,66,0.00,CLR,,0.00,252.6,WeatherDisplay:10.37,2013-06-22 06:55:00,
2013-06-22 17:00:00,72.7,60.3,30.03,North,0,6.0,10.0,65,0.00,CLR,,0.00,218.9,WeatherDisplay:10.37,2013-06-22 07:00:00,
2013-06-22 17:05:00,73.0,60.6,30.03,North,0,6.0,8.0,65,0.00,CLR,,0.00,182.5,WeatherDisplay:10.37,2013-06-22 07:05:00,
2013-06-22 17:10:00,72.7,59.8,30.03,North,0,6.0,11.0,64,0.00,CLR,,0.00,150.9,WeatherDisplay:10.37,2013-06-22 07:10:00,
2013-06-22 17:15:00,72.3,59.9,30.04,North,0,6.0,12.0,65,0.00,CLR,,0.00,124.2,WeatherDisplay:10.37,2013-06-22 07:15:00,
2013-06-22 17:20:00,71.8,59.4,30.04,North,0,6.0,12.0,65,0.00,CLR,,0.00,96.8,WeatherDisplay:10.37,2013-06-22 07:20:00,
2013-06-22 17:30:00,71.1,60.0,30.04,North,0,3.0,6.0,68,0.00,CLR,,0.00,48.6,WeatherDisplay:10.37,2013-06-22 07:30:00,
2013-06-22 17:35:00,70.7,60.0,30.04,North,0,2.0,6.0,69,0.00,CLR,,0.00,27.5,WeatherDisplay:10.37,2013-06-22 07:35:00,
2013-06-22 17:40:00,69.9,59.6,30.04,North,0,3.0,6.0,70,0.00,CLR,,0.00,17.5,WeatherDisplay:10.37,2013-06-22 07:40:00,
2013-06-22 17:45:00,69.1,60.1,30.05,North,0,3.0,6.0,73,0.00,CLR,,0.00,12.4,WeatherDisplay:10.37,2013-06-22 07:45:00,
2013-06-22 17:50:00,68.5,59.9,30.05,North,0,2.0,5.0,74,0.00,CLR,,0.00,6.6,WeatherDisplay:10.37,2013-06-22 07:50:00,
2013-06-22 17:55:00,68.2,59.6,30.05,North,0,2.0,5.0,74,0.00,CLR,,0.00,2.8,WeatherDisplay:10.37,2013-06-22 07:55:00,
2013-06-22 18:05:00,67.2,59.7,30.05,North,0,3.0,6.0,77,0.00,CLR,,0.00,0.0,WeatherDisplay:10.37,2013-06-22 08:05:00,
2013-06-22 18:10:00,66.7,59.3,30.05,North,0,3.0,6.0,77,0.00,CLR,,0.00,0.0,WeatherDisplay:10.37,2013-06-22 08:10:00,
2013-06-22 18:15:00,66.4,59.3,30.06,North,0,2.0,6.0,78,0.00,CLR,,0.00,0.0,WeatherDisplay:10.37,2013-06-22 08:15:00,
2013-06-22 18:20:00,66.2,59.1,30.06,North,0,2.0,6.0,78,0.00,CLR,,0.00,0.0,WeatherDisplay:10.37,2013-06-22 08:20:00,
2013-06-22 18:25:00,65.8,59.1,30.06,North,0,2.0,4.0,79,0.00,CLR,,0.00,0.0,WeatherDisplay:10.37,2013-06-22 08:25:00,
2013-06-22 18:30:00,65.7,59.3,30.06,North,0,1.0,3.0,80,0.00,CLR,,0.00,0.0,WeatherDisplay:10.37,2013-06-22 08:30:00,
2013-06-22 18:35:00,65.3,59.0,30.06,North,0,1.0,2.0,80,0.00,CLR,,0.00,0.0,WeatherDisplay:10.37,2013-06-22 08:35:00,
2013-06-22 18:40:00,65.2,58.8,30.06,North,0,1.0,2.0,80,0.00,CLR,,0.00,0.0,WeatherDisplay:10.37,2013-06-22 08:40:00,
2013-06-22 18:45:00,64.9,59.0,30.07,North,0,2.0,3.0,81,0.00,CLR,,0.00,0.0,WeatherDisplay:10.37,2013-06-22 08:45:00,
2013-06-22 18:50:00,64.8,58.8,30.07,North,0,1.0,3.0,81,0.00,CLR,,0.00,0.0,WeatherDisplay:10.37,2013-06-22 08:50:00,
2013-06-22 18:55:00,64.4,58.5,30.07,North,0,0.0,2.0,81,0.00,CLR,,0.00,0.0,WeatherDisplay:10.37,2013-06-22 08:55:00,
2013-06-22 19:00:00,63.9,58.3,30.07,North,0,0.0,2.0,82,0.00,CLR,,0.00,0.0,WeatherDisplay:10.37,2013-06-22 09:00:00,
2013-06-22 19:05:00,63.3,58.1,30.07,North,0,0.0,2.0,83,0.00,CLR,,0.00,0.0,WeatherDisplay:10.37,2013-06-22 09:05:00,
2013-06-22 19:10:00,62.8,57.9,30.07,North,0,0.0,1.0,84,0.00,CLR,,0.00,0.0,WeatherDisplay:10.37,2013-06-22 09:10:00,
2013-06-22 19:15:00,62.8,58.2,30.08,North,0,0.0,0.0,85,0.00,CLR,,0.00,0.0,WeatherDisplay:10.37,2013-06-22 09:15:00,
2013-06-22 19:20:00,62.6,58.4,30.08,North,0,1.0,2.0,86,0.00,CLR,,0.00,0.0,WeatherDisplay:10.37,2013-06-22 09:20:00,
2013-06-22 19:25:00,62.7,58.5,30.08,North,0,0.0,1.0,86,0.00,CLR,,0.00,0.0,WeatherDisplay:10.37,2013-06-22 09:25:00,
2013-06-22 19:30:00,63.0,58.7,30.08,North,0,1.0,2.0,86,0.00,CLR,,0.00,0.0,WeatherDisplay:10.37,2013-06-22 09:30:00,
2013-06-22 19:35:00,63.0,58.4,30.08,North,0,0.0,2.0,85,0.00,CLR,,0.00,0.0,WeatherDisplay:10.37,2013-06-22 09:35:00,
2013-06-22 19:40:00,63.5,58.6,30.08,North,0,0.0,0.0,84,0.00,CLR,,0.00,0.0,WeatherDisplay:10.37,2013-06-22 09:40:00,
2013-06-22 19:45:00,63.4,58.5,30.08,North,0,0.0,0.0,84,0.00,CLR,,0.00,0.0,WeatherDisplay:10.37,2013-06-22 09:45:00,
2013-06-22 19:50:00,62.8,58.2,30.09,North,0,0.0,2.0,85,0.00,CLR,,0.00,0.0,WeatherDisplay:10.37,2013-06-22 09:50:00,
2013-06-22 19:55:00,62.7,58.1,30.09,North,0,2.0,3.0,85,0.00,CLR,,0.00,0.0,WeatherDisplay:10.37,2013-06-22 09:55:00,
2013-06-22 20:00:00,62.8,58.2,30.09,North,0,0.0,2.0,85,0.00,CLR,,0.00,0.0,WeatherDisplay:10.37,2013-06-22 10:00:00,
2013-06-22 20:05:00,62.4,58.2,30.09,North,0,0.0,0.0,86,0.00,CLR,,0.00,0.0,WeatherDisplay:10.37,2013-06-22 10:05:00,
2013-06-22 20:10:00,62.1,58.2,30.09,North,0,0.0,0.0,87,0.00,CLR,,0.00,0.0,WeatherDisplay:10.37,2013-06-22 10:10:00,
2013-06-22 20:15:00,61.9,58.0,30.09,North,0,0.0,2.0,87,0.00,CLR,,0.00,0.0,WeatherDisplay:10.37,2013-06-22 10:15:00,
2013-06-22 20:20:00,61.9,58.3,30.09,North,0,1.0,4.0,88,0.00,CLR,,0.00,0.0,WeatherDisplay:10.37,2013-06-22 10:20:00,
2013-06-22 20:25:00,62.1,58.5,30.09,North,0,0.0,2.0,88,0.00,CLR,,0.00,0.0,WeatherDisplay:10.37,2013-06-22 10:25:00,
2013-06-22 20:30:00,61.9,58.3,30.10,North,0,1.0,3.0,88,0.00,CLR,,0.00,0.0,WeatherDisplay:10.37,2013-06-22 10:30:00,
2013-06-22 20:35:00,61.7,57.8,30.09,North,0,0.0,2.0,87,0.00,CLR,,0.00,0.0,WeatherDisplay:10.37,2013-06-22 10:35:00,
2013-06-22 20:45:00,61.9,57.6,30.10,North,0,1.0,3.0,86,0.00,CLR,,0.00,0.0,WeatherDisplay:10.37,2013-06-22 10:45:00,
2013-06-22 20:50:00,61.9,57.6,30.10,North,0,0.0,2.0,86,0.00,CLR,,0.00,0.0,WeatherDisplay:10.37,2013-06-22 10:50:00,
2013-06-22 20:55:00,61.6,57.4,30.10,North,0,0.0,0.0,86,0.00,CLR,,0.00,0.0,WeatherDisplay:10.37,2013-06-22 10:55:00,
2013-06-22 21:00:00,61.4,57.2,30.10,North,0,0.0,0.0,86,0.00,CLR,,0.00,0.0,WeatherDisplay:10.37,2013-06-22 11:00:00,
2013-06-22 21:05:00,61.2,57.3,30.10,North,0,0.0,0.0,87,0.00,CLR,,0.00,0.0,WeatherDisplay:10.37,2013-06-22 11:05:00,
2013-06-22 21:10:00,60.9,57.3,30.11,North,0,0.0,0.0,88,0.00,CLR,,0.00,0.0,WeatherDisplay:10.37,2013-06-22 11:10:00,
2013-06-22 21:15:00,60.8,57.2,30.11,North,0,1.0,3.0,88,0.00,CLR,,0.00,0.0,WeatherDisplay:10.37,2013-06-22 11:15:00,
2013-06-22 21:20:00,60.6,57.4,30.11,North,0,1.0,3.0,89,0.00,CLR,,0.00,0.0,WeatherDisplay:10.37,2013-06-22 11:20:00,
2013-06-22 21:25:00,60.8,56.9,30.11,North,0,1.0,3.0,87,0.00,CLR,,0.00,0.0,WeatherDisplay:10.37,2013-06-22 11:25:00,
2013-06-22 21:35:00,60.6,56.7,30.11,North,0,1.0,2.0,87,0.00,CLR,,0.00,0.0,WeatherDisplay:10.37,2013-06-22 11:35:00,
2013-06-22 21:40:00,60.4,56.6,30.11,North,0,0.0,2.0,87,0.00,CLR,,0.00,0.0,WeatherDisplay:10.37,2013-06-22 11:40:00,
2013-06-22 21:45:00,60.3,56.4,30.11,North,0,0.0,2.0,87,0.00,CLR,,0.00,0.0,WeatherDisplay:10.37,2013-06-22 11:45:00,
2013-06-22 21:50:00,60.1,56.2,30.11,North,0,0.0,2.0,87,0.00,CLR,,0.00,0.0,WeatherDisplay:10.37,2013-06-22 11:50:00,
2013-06-22 21:55:00,59.7,56.2,30.11,North,0,0.0,2.0,88,0.00,CLR,,0.00,0.0,WeatherDisplay:10.37,2013-06-22 11:55:00,
2013-06-22 22:00:00,59.4,56.4,30.11,North,0,1.0,2.0,90,0.00,CLR,,0.00,0.0,WeatherDisplay:10.37,2013-06-22 12:00:00,
2013-06-22 22:05:00,59.0,56.4,30.11,North,0,0.0,2.0,91,0.00,CLR,,0.00,0.0,WeatherDisplay:10.37,2013-06-22 12:05:00,
2013-06-22 22:10:00,58.6,56.3,30.11,North,0,0.0,1.0,92,0.00,CLR,,0.00,0.0,WeatherDisplay:10.37,2013-06-22 12:10:00,
2013-06-22 22:15:00,58.6,56.6,30.11,North,0,0.0,0.0,93,0.00,CLR,,0.00,0.0,WeatherDisplay:10.37,2013-06-22 12:15:00,
2013-06-22 22:20:00,58.5,56.7,30.11,North,0,0.0,0.0,94,0.00,CLR,,0.00,0.0,WeatherDisplay:10.37,2013-06-22 12:20:00,
2013-06-22 22:25:00,58.3,56.6,30.11,North,0,0.0,0.0,94,0.00,CLR,,0.00,0.0,WeatherDisplay:10.37,2013-06-22 12:25:00,
2013-06-22 22:30:00,57.9,56.2,30.11,North,0,0.0,0.0,94,0.00,CLR,,0.00,0.0,WeatherDisplay:10.37,2013-06-22 12:30:00,
2013-06-22 22:40:00,57.6,56.1,30.11,North,0,0.0,0.0,95,0.00,CLR,,0.00,0.0,WeatherDisplay:10.37,2013-06-22 12:40:00,
2013-06-22 22:45:00,57.4,56.0,30.11,North,0,0.0,1.0,95,0.00,CLR,,0.00,0.0,WeatherDisplay:10.37,2013-06-22 12:45:00,
2013-06-22 22:50:00,57.4,56.0,30.11,North,0,0.0,0.0,95,0.00,CLR,,0.00,0.0,WeatherDisplay:10.37,2013-06-22 12:50:00,
2013-06-22 22:55:00,57.4,56.2,30.11,North,0,0.0,1.0,96,0.00,CLR,,0.00,0.0,WeatherDisplay:10.37,2013-06-22 12:55:00,
2013-06-22 23:00:00,57.4,56.2,30.11,North,0,0.0,1.0,96,0.00,CLR,,0.00,0.0,WeatherDisplay:10.37,2013-06-22 13:00:00,
2013-06-22 23:05:00,57.2,56.1,30.11,North,0,0.0,1.0,96,0.00,CLR,,0.00,0.0,WeatherDisplay:10.37,2013-06-22 13:05:00,
2013-06-22 23:10:00,57.2,56.1,30.11,North,0,1.0,2.0,96,0.00,CLR,,0.00,0.0,WeatherDisplay:10.37,2013-06-22 13:10:00,
2013-06-22 23:15:00,57.3,56.4,30.11,North,0,1.0,2.0,97,0.00,CLR,,0.00,0.0,WeatherDisplay:10.37,2013-06-22 13:15:00,
2013-06-22 23:20:00,56.9,56.3,30.11,North,0,0.0,2.0,98,0.00,CLR,,0.00,0.0,WeatherDisplay:10.37,2013-06-22 13:20:00,
2013-06-22 23:25:00,56.7,56.1,30.11,North,0,0.0,0.0,98,0.00,CLR,,0.00,0.0,WeatherDisplay:10.37,2013-06-22 13:25:00,
2013-06-22 23:30:00,56.7,56.1,30.10,North,0,0.0,0.0,98,0.00,CLR,,0.00,0.0,WeatherDisplay:10.37,2013-06-22 13:30:00,
2013-06-22 23:35:00,56.7,56.1,30.11,North,0,0.0,0.0,98,0.00,CLR,,0.00,0.0,WeatherDisplay:10.37,2013-06-22 13:35:00,
2013-06-22 23:40:00,56.7,56.4,30.11,North,0,0.0,0.0,99,0.00,CLR,,0.00,0.0,WeatherDisplay:10.37,2013-06-22 13:40:00,
2013-06-22 23:45:00,56.5,56.2,30.10,North,0,0.0,0.0,99,0.00,CLR,,0.00,0.0,WeatherDisplay:10.37,2013-06-22 13:45:00,
2013-06-22 23:50:00,56.3,56.0,30.10,North,0,0.0,0.0,99,0.00,CLR,,0.00,0.0,WeatherDisplay:10.37,2013-06-22 13:50:00,
2013-06-22 23:55:00,56.3,56.0,30.10,North,0,0.0,0.0,99,0.00,CLR,,0.00,0.0,WeatherDisplay:10.37,2013-06-22 13:55:00,